sensor_id;sensor_type;location;lat;lon;timestamp;temperature;humidity
1994;DHT22;998;49.906;10.908;2023-03-05T00:00:50;4.10;99.90
1994;DHT22;998;49.906;10.908;2023-03-05T00:03:17;4.10;99.90
1994;DHT22;998;49.906;10.908;2023-03-05T00:05:46;4.10;99.90
1994;DHT22;998;49.906;10.908;2023-03-05T00:08:13;4.10;99.90
1994;DHT22;998;49.906;10.908;2023-03-05T00:10:40;4.20;99.90
1994;DHT22;998;49.906;10.908;2023-03-05T00:13:08;4.10;99.90
1994;DHT22;998;49.906;10.908;2023-03-05T00:15:40;4.10;99.90
1994;DHT22;998;49.906;10.908;2023-03-05T00:18:08;4.10;99.90
1994;DHT22;998;49.906;10.908;2023-03-05T00:20:35;4.20;99.90
1994;DHT22;998;49.906;10.908;2023-03-05T00:23:04;4.20;99.90
1994;DHT22;998;49.906;10.908;2023-03-05T00:25:34;4.20;99.90
1994;DHT22;998;49.906;10.908;2023-03-05T00:28:01;4.20;99.90
1994;DHT22;998;49.906;10.908;2023-03-05T00:30:29;4.20;99.90
1994;DHT22;998;49.906;10.908;2023-03-05T00:32:57;4.20;99.90
1994;DHT22;998;49.906;10.908;2023-03-05T00:35:25;4.30;99.90
1994;DHT22;998;49.906;10.908;2023-03-05T00:37:53;4.20;99.90
1994;DHT22;998;49.906;10.908;2023-03-05T00:40:21;4.20;99.90
1994;DHT22;998;49.906;10.908;2023-03-05T00:42:49;4.30;99.90
1994;DHT22;998;49.906;10.908;2023-03-05T00:45:16;4.30;99.90
1994;DHT22;998;49.906;10.908;2023-03-05T00:47:43;4.30;99.90
1994;DHT22;998;49.906;10.908;2023-03-05T00:50:11;4.30;99.90
1994;DHT22;998;49.906;10.908;2023-03-05T00:52:38;4.30;99.90
1994;DHT22;998;49.906;10.908;2023-03-05T00:55:06;4.30;99.90
1994;DHT22;998;49.906;10.908;2023-03-05T00:57:35;4.30;99.90
1994;DHT22;998;49.906;10.908;2023-03-05T01:00:04;4.20;99.90
1994;DHT22;998;49.906;10.908;2023-03-05T01:02:31;4.20;99.90
1994;DHT22;998;49.906;10.908;2023-03-05T01:04:59;4.20;99.90
1994;DHT22;998;49.906;10.908;2023-03-05T01:07:26;4.20;99.90
1994;DHT22;998;49.906;10.908;2023-03-05T01:09:53;4.20;99.90
1994;DHT22;998;49.906;10.908;2023-03-05T01:12:21;4.20;99.90
1994;DHT22;998;49.906;10.908;2023-03-05T01:14:50;4.10;99.90
1994;DHT22;998;49.906;10.908;2023-03-05T01:17:17;4.10;99.90
1994;DHT22;998;49.906;10.908;2023-03-05T01:19:45;4.10;99.90
1994;DHT22;998;49.906;10.908;2023-03-05T01:22:12;4.10;99.90
1994;DHT22;998;49.906;10.908;2023-03-05T01:24:39;4.00;99.90
1994;DHT22;998;49.906;10.908;2023-03-05T01:27:07;4.10;99.90
1994;DHT22;998;49.906;10.908;2023-03-05T01:29:36;4.00;99.90
1994;DHT22;998;49.906;10.908;2023-03-05T01:32:05;4.00;99.90
1994;DHT22;998;49.906;10.908;2023-03-05T01:34:32;4.00;99.90
1994;DHT22;998;49.906;10.908;2023-03-05T01:37:00;4.00;99.90
1994;DHT22;998;49.906;10.908;2023-03-05T01:39:27;4.00;99.90
1994;DHT22;998;49.906;10.908;2023-03-05T01:41:54;4.00;99.90
1994;DHT22;998;49.906;10.908;2023-03-05T01:44:24;3.90;99.90
1994;DHT22;998;49.906;10.908;2023-03-05T01:46:51;4.00;99.90
1994;DHT22;998;49.906;10.908;2023-03-05T01:49:23;4.00;99.90
1994;DHT22;998;49.906;10.908;2023-03-05T01:52:02;4.00;99.90
1994;DHT22;998;49.906;10.908;2023-03-05T01:54:35;4.00;99.90
1994;DHT22;998;49.906;10.908;2023-03-05T01:57:08;4.00;99.90
1994;DHT22;998;49.906;10.908;2023-03-05T01:59:38;4.00;99.90
1994;DHT22;998;49.906;10.908;2023-03-05T02:02:06;4.00;99.90
1994;DHT22;998;49.906;10.908;2023-03-05T02:04:41;4.00;99.90
1994;DHT22;998;49.906;10.908;2023-03-05T02:07:11;4.00;99.90
1994;DHT22;998;49.906;10.908;2023-03-05T02:09:39;4.00;99.90
1994;DHT22;998;49.906;10.908;2023-03-05T02:12:08;4.00;99.90
1994;DHT22;998;49.906;10.908;2023-03-05T02:14:37;4.00;99.90
1994;DHT22;998;49.906;10.908;2023-03-05T02:17:05;4.00;99.90
1994;DHT22;998;49.906;10.908;2023-03-05T02:19:48;4.00;99.90
1994;DHT22;998;49.906;10.908;2023-03-05T02:22:18;3.90;99.90
1994;DHT22;998;49.906;10.908;2023-03-05T02:24:46;3.90;99.90
1994;DHT22;998;49.906;10.908;2023-03-05T02:27:14;3.90;99.90
1994;DHT22;998;49.906;10.908;2023-03-05T02:29:44;3.90;99.90
1994;DHT22;998;49.906;10.908;2023-03-05T02:32:12;3.90;99.90
1994;DHT22;998;49.906;10.908;2023-03-05T02:34:40;3.90;99.90
1994;DHT22;998;49.906;10.908;2023-03-05T02:37:07;4.00;99.90
1994;DHT22;998;49.906;10.908;2023-03-05T02:39:36;3.90;99.90
1994;DHT22;998;49.906;10.908;2023-03-05T02:42:04;3.90;99.90
1994;DHT22;998;49.906;10.908;2023-03-05T02:44:32;4.00;99.90
1994;DHT22;998;49.906;10.908;2023-03-05T02:47:00;3.90;99.90
1994;DHT22;998;49.906;10.908;2023-03-05T02:49:27;3.90;99.90
1994;DHT22;998;49.906;10.908;2023-03-05T02:51:55;4.00;99.90
1994;DHT22;998;49.906;10.908;2023-03-05T02:54:22;4.00;99.90
1994;DHT22;998;49.906;10.908;2023-03-05T02:56:51;4.00;99.90
1994;DHT22;998;49.906;10.908;2023-03-05T02:59:19;4.00;99.90
1994;DHT22;998;49.906;10.908;2023-03-05T03:01:46;4.00;99.90
1994;DHT22;998;49.906;10.908;2023-03-05T03:04:13;4.00;99.90
1994;DHT22;998;49.906;10.908;2023-03-05T03:06:40;4.00;99.90
1994;DHT22;998;49.906;10.908;2023-03-05T03:09:07;4.00;99.90
1994;DHT22;998;49.906;10.908;2023-03-05T03:11:34;4.00;99.90
1994;DHT22;998;49.906;10.908;2023-03-05T03:14:03;4.00;99.90
1994;DHT22;998;49.906;10.908;2023-03-05T03:16:32;4.00;99.90
1994;DHT22;998;49.906;10.908;2023-03-05T03:18:59;4.00;99.90
1994;DHT22;998;49.906;10.908;2023-03-05T03:21:26;4.00;99.90
1994;DHT22;998;49.906;10.908;2023-03-05T03:23:54;3.90;99.90
1994;DHT22;998;49.906;10.908;2023-03-05T03:26:21;3.90;99.90
1994;DHT22;998;49.906;10.908;2023-03-05T03:28:49;3.90;99.90
1994;DHT22;998;49.906;10.908;2023-03-05T03:31:18;3.90;99.90
1994;DHT22;998;49.906;10.908;2023-03-05T03:33:45;3.90;99.90
1994;DHT22;998;49.906;10.908;2023-03-05T03:36:13;3.90;99.90
1994;DHT22;998;49.906;10.908;2023-03-05T03:38:40;3.90;99.90
1994;DHT22;998;49.906;10.908;2023-03-05T03:41:08;3.90;99.90
1994;DHT22;998;49.906;10.908;2023-03-05T03:43:36;3.90;99.90
1994;DHT22;998;49.906;10.908;2023-03-05T03:46:04;3.90;99.90
1994;DHT22;998;49.906;10.908;2023-03-05T03:48:33;3.90;99.90
1994;DHT22;998;49.906;10.908;2023-03-05T03:51:04;4.00;99.90
1994;DHT22;998;49.906;10.908;2023-03-05T03:53:31;3.90;99.90
1994;DHT22;998;49.906;10.908;2023-03-05T03:55:59;3.90;99.90
1994;DHT22;998;49.906;10.908;2023-03-05T03:58:26;3.90;99.90
1994;DHT22;998;49.906;10.908;2023-03-05T04:00:53;3.90;99.90
1994;DHT22;998;49.906;10.908;2023-03-05T04:03:21;3.90;99.90
1994;DHT22;998;49.906;10.908;2023-03-05T04:05:50;3.90;99.90
1994;DHT22;998;49.906;10.908;2023-03-05T04:08:17;3.90;99.90
1994;DHT22;998;49.906;10.908;2023-03-05T04:10:44;3.90;99.90
1994;DHT22;998;49.906;10.908;2023-03-05T04:13:12;3.90;99.90
1994;DHT22;998;49.906;10.908;2023-03-05T04:15:39;3.90;99.90
1994;DHT22;998;49.906;10.908;2023-03-05T04:18:07;3.90;99.90
1994;DHT22;998;49.906;10.908;2023-03-05T04:20:35;3.90;99.90
1994;DHT22;998;49.906;10.908;2023-03-05T04:23:04;3.90;99.90
1994;DHT22;998;49.906;10.908;2023-03-05T04:25:31;3.90;99.90
1994;DHT22;998;49.906;10.908;2023-03-05T04:27:59;3.90;99.90
1994;DHT22;998;49.906;10.908;2023-03-05T04:30:26;3.90;99.90
1994;DHT22;998;49.906;10.908;2023-03-05T04:32:53;3.90;99.90
1994;DHT22;998;49.906;10.908;2023-03-05T04:35:21;3.90;99.90
1994;DHT22;998;49.906;10.908;2023-03-05T04:37:48;3.90;99.90
1994;DHT22;998;49.906;10.908;2023-03-05T04:40:17;3.90;99.90
1994;DHT22;998;49.906;10.908;2023-03-05T04:42:44;3.80;99.90
1994;DHT22;998;49.906;10.908;2023-03-05T04:45:12;3.80;99.90
1994;DHT22;998;49.906;10.908;2023-03-05T04:47:42;3.80;99.90
1994;DHT22;998;49.906;10.908;2023-03-05T04:50:10;3.90;99.90
1994;DHT22;998;49.906;10.908;2023-03-05T04:52:39;3.90;99.90
1994;DHT22;998;49.906;10.908;2023-03-05T04:55:07;3.90;99.90
1994;DHT22;998;49.906;10.908;2023-03-05T04:57:36;3.90;99.90
1994;DHT22;998;49.906;10.908;2023-03-05T05:00:06;3.90;99.90
1994;DHT22;998;49.906;10.908;2023-03-05T05:02:38;3.90;99.90
1994;DHT22;998;49.906;10.908;2023-03-05T05:05:06;3.90;99.90
1994;DHT22;998;49.906;10.908;2023-03-05T05:07:34;3.90;99.90
1994;DHT22;998;49.906;10.908;2023-03-05T05:10:02;3.90;99.90
1994;DHT22;998;49.906;10.908;2023-03-05T05:12:29;3.90;99.90
1994;DHT22;998;49.906;10.908;2023-03-05T05:14:58;3.90;99.90
1994;DHT22;998;49.906;10.908;2023-03-05T05:17:26;3.80;99.90
1994;DHT22;998;49.906;10.908;2023-03-05T05:19:56;3.90;99.90
1994;DHT22;998;49.906;10.908;2023-03-05T05:22:23;3.90;99.90
1994;DHT22;998;49.906;10.908;2023-03-05T05:24:51;3.80;99.90
1994;DHT22;998;49.906;10.908;2023-03-05T05:27:18;3.80;99.90
1994;DHT22;998;49.906;10.908;2023-03-05T05:29:45;3.80;99.90
1994;DHT22;998;49.906;10.908;2023-03-05T05:32:16;3.80;99.90
1994;DHT22;998;49.906;10.908;2023-03-05T05:34:44;3.80;99.90
1994;DHT22;998;49.906;10.908;2023-03-05T05:37:11;3.80;99.90
1994;DHT22;998;49.906;10.908;2023-03-05T05:39:38;3.80;99.90
1994;DHT22;998;49.906;10.908;2023-03-05T05:42:06;3.80;99.90
1994;DHT22;998;49.906;10.908;2023-03-05T05:44:33;3.80;99.90
1994;DHT22;998;49.906;10.908;2023-03-05T05:47:01;3.80;99.90
1994;DHT22;998;49.906;10.908;2023-03-05T05:49:30;3.80;99.90
1994;DHT22;998;49.906;10.908;2023-03-05T05:51:57;3.80;99.90
1994;DHT22;998;49.906;10.908;2023-03-05T05:54:25;3.80;99.90
1994;DHT22;998;49.906;10.908;2023-03-05T05:56:52;3.80;99.90
1994;DHT22;998;49.906;10.908;2023-03-05T05:59:19;3.80;99.90
1994;DHT22;998;49.906;10.908;2023-03-05T06:01:47;3.80;99.90
1994;DHT22;998;49.906;10.908;2023-03-05T06:04:14;3.80;99.90
1994;DHT22;998;49.906;10.908;2023-03-05T06:06:43;3.80;99.90
1994;DHT22;998;49.906;10.908;2023-03-05T06:09:10;3.80;99.90
1994;DHT22;998;49.906;10.908;2023-03-05T06:11:37;3.80;99.90
1994;DHT22;998;49.906;10.908;2023-03-05T06:14:05;3.80;99.90
1994;DHT22;998;49.906;10.908;2023-03-05T06:16:33;3.80;99.90
1994;DHT22;998;49.906;10.908;2023-03-05T06:19:01;3.70;99.90
1994;DHT22;998;49.906;10.908;2023-03-05T06:21:29;3.80;99.90
1994;DHT22;998;49.906;10.908;2023-03-05T06:23:58;3.70;99.90
1994;DHT22;998;49.906;10.908;2023-03-05T06:26:25;3.60;99.90
1994;DHT22;998;49.906;10.908;2023-03-05T06:28:53;3.60;99.90
1994;DHT22;998;49.906;10.908;2023-03-05T06:31:22;3.70;99.90
1994;DHT22;998;49.906;10.908;2023-03-05T06:33:51;3.60;99.90
1994;DHT22;998;49.906;10.908;2023-03-05T06:36:21;3.50;99.90
1994;DHT22;998;49.906;10.908;2023-03-05T06:38:49;3.60;99.90
1994;DHT22;998;49.906;10.908;2023-03-05T06:41:20;3.60;99.90
1994;DHT22;998;49.906;10.908;2023-03-05T06:43:48;3.70;99.90
1994;DHT22;998;49.906;10.908;2023-03-05T06:46:17;3.70;99.90
1994;DHT22;998;49.906;10.908;2023-03-05T06:48:45;3.60;99.90
1994;DHT22;998;49.906;10.908;2023-03-05T06:51:13;3.70;99.90
1994;DHT22;998;49.906;10.908;2023-03-05T06:53:41;3.70;99.90
1994;DHT22;998;49.906;10.908;2023-03-05T06:56:09;3.70;99.90
1994;DHT22;998;49.906;10.908;2023-03-05T06:58:40;3.80;99.90
1994;DHT22;998;49.906;10.908;2023-03-05T07:01:07;3.80;99.90
1994;DHT22;998;49.906;10.908;2023-03-05T07:03:35;3.80;99.90
1994;DHT22;998;49.906;10.908;2023-03-05T07:06:03;3.80;99.90
1994;DHT22;998;49.906;10.908;2023-03-05T07:08:31;3.80;99.90
1994;DHT22;998;49.906;10.908;2023-03-05T07:10:59;3.90;99.90
1994;DHT22;998;49.906;10.908;2023-03-05T07:13:27;3.80;99.90
1994;DHT22;998;49.906;10.908;2023-03-05T07:15:56;3.80;99.90
1994;DHT22;998;49.906;10.908;2023-03-05T07:18:23;3.80;99.90
1994;DHT22;998;49.906;10.908;2023-03-05T07:20:51;3.80;99.90
1994;DHT22;998;49.906;10.908;2023-03-05T07:23:18;3.80;99.90
1994;DHT22;998;49.906;10.908;2023-03-05T07:25:46;3.80;99.90
1994;DHT22;998;49.906;10.908;2023-03-05T07:28:13;3.80;99.90
1994;DHT22;998;49.906;10.908;2023-03-05T07:30:40;3.80;99.90
1994;DHT22;998;49.906;10.908;2023-03-05T07:33:10;3.80;99.90
1994;DHT22;998;49.906;10.908;2023-03-05T07:35:39;3.90;99.90
1994;DHT22;998;49.906;10.908;2023-03-05T07:38:07;3.90;99.90
1994;DHT22;998;49.906;10.908;2023-03-05T07:40:34;3.90;99.90
1994;DHT22;998;49.906;10.908;2023-03-05T07:43:01;3.90;99.90
1994;DHT22;998;49.906;10.908;2023-03-05T07:45:29;3.90;99.90
1994;DHT22;998;49.906;10.908;2023-03-05T07:47:56;3.80;99.90
1994;DHT22;998;49.906;10.908;2023-03-05T07:50:25;3.90;99.90
1994;DHT22;998;49.906;10.908;2023-03-05T07:52:52;3.80;99.90
1994;DHT22;998;49.906;10.908;2023-03-05T07:55:19;3.90;99.90
1994;DHT22;998;49.906;10.908;2023-03-05T07:57:47;3.90;99.90
1994;DHT22;998;49.906;10.908;2023-03-05T08:00:15;3.90;99.90
1994;DHT22;998;49.906;10.908;2023-03-05T08:02:42;3.90;99.90
1994;DHT22;998;49.906;10.908;2023-03-05T08:05:09;3.90;99.90
1994;DHT22;998;49.906;10.908;2023-03-05T08:07:38;3.90;99.90
1994;DHT22;998;49.906;10.908;2023-03-05T08:10:07;3.90;99.90
1994;DHT22;998;49.906;10.908;2023-03-05T08:12:34;3.90;99.90
1994;DHT22;998;49.906;10.908;2023-03-05T08:15:02;3.90;99.90
1994;DHT22;998;49.906;10.908;2023-03-05T08:17:29;3.90;99.90
1994;DHT22;998;49.906;10.908;2023-03-05T08:19:57;3.90;99.90
1994;DHT22;998;49.906;10.908;2023-03-05T08:22:25;3.90;99.90
1994;DHT22;998;49.906;10.908;2023-03-05T08:24:54;3.80;99.90
1994;DHT22;998;49.906;10.908;2023-03-05T08:27:21;3.90;99.90
1994;DHT22;998;49.906;10.908;2023-03-05T08:29:48;3.90;99.90
1994;DHT22;998;49.906;10.908;2023-03-05T08:32:16;3.90;99.90
1994;DHT22;998;49.906;10.908;2023-03-05T08:34:43;3.90;99.90
1994;DHT22;998;49.906;10.908;2023-03-05T08:37:11;3.90;99.90
1994;DHT22;998;49.906;10.908;2023-03-05T08:39:38;3.90;99.90
1994;DHT22;998;49.906;10.908;2023-03-05T08:42:07;3.90;99.90
1994;DHT22;998;49.906;10.908;2023-03-05T08:44:35;3.90;99.90
1994;DHT22;998;49.906;10.908;2023-03-05T08:47:02;3.90;99.90
1994;DHT22;998;49.906;10.908;2023-03-05T08:49:29;4.00;99.90
1994;DHT22;998;49.906;10.908;2023-03-05T08:51:57;4.00;99.90
1994;DHT22;998;49.906;10.908;2023-03-05T08:54:24;3.90;99.90
1994;DHT22;998;49.906;10.908;2023-03-05T08:56:52;3.90;99.90
1994;DHT22;998;49.906;10.908;2023-03-05T08:59:20;3.90;99.90
1994;DHT22;998;49.906;10.908;2023-03-05T09:01:48;3.90;99.90
1994;DHT22;998;49.906;10.908;2023-03-05T09:04:16;3.90;99.90
1994;DHT22;998;49.906;10.908;2023-03-05T09:06:43;3.90;99.90
1994;DHT22;998;49.906;10.908;2023-03-05T09:09:11;3.90;99.90
1994;DHT22;998;49.906;10.908;2023-03-05T09:11:38;3.90;99.90
1994;DHT22;998;49.906;10.908;2023-03-05T09:14:06;3.90;99.90
1994;DHT22;998;49.906;10.908;2023-03-05T09:16:35;4.00;99.90
1994;DHT22;998;49.906;10.908;2023-03-05T09:19:05;3.90;99.90
1994;DHT22;998;49.906;10.908;2023-03-05T09:21:34;4.00;99.90
1994;DHT22;998;49.906;10.908;2023-03-05T09:24:01;4.10;99.90
1994;DHT22;998;49.906;10.908;2023-03-05T09:26:29;4.10;99.90
1994;DHT22;998;49.906;10.908;2023-03-05T09:28:56;4.10;99.90
1994;DHT22;998;49.906;10.908;2023-03-05T09:31:24;4.20;99.90
1994;DHT22;998;49.906;10.908;2023-03-05T09:33:52;4.20;99.90
1994;DHT22;998;49.906;10.908;2023-03-05T09:36:22;4.30;99.90
1994;DHT22;998;49.906;10.908;2023-03-05T09:38:50;4.30;99.90
1994;DHT22;998;49.906;10.908;2023-03-05T09:41:25;4.30;99.90
1994;DHT22;998;49.906;10.908;2023-03-05T09:44:05;4.30;99.90
1994;DHT22;998;49.906;10.908;2023-03-05T09:46:46;4.30;99.90
1994;DHT22;998;49.906;10.908;2023-03-05T09:49:19;4.30;99.90
1994;DHT22;998;49.906;10.908;2023-03-05T09:51:51;4.20;99.90
1994;DHT22;998;49.906;10.908;2023-03-05T09:54:24;4.30;99.90
1994;DHT22;998;49.906;10.908;2023-03-05T09:56:55;4.30;99.90
1994;DHT22;998;49.906;10.908;2023-03-05T09:59:30;4.30;99.90
1994;DHT22;998;49.906;10.908;2023-03-05T10:02:04;4.30;99.90
1994;DHT22;998;49.906;10.908;2023-03-05T10:04:43;4.20;99.90
1994;DHT22;998;49.906;10.908;2023-03-05T10:07:16;4.20;99.90
1994;DHT22;998;49.906;10.908;2023-03-05T10:09:48;4.20;99.90
1994;DHT22;998;49.906;10.908;2023-03-05T10:12:23;4.20;99.90
1994;DHT22;998;49.906;10.908;2023-03-05T10:14:53;4.20;99.90
1994;DHT22;998;49.906;10.908;2023-03-05T10:17:49;4.20;99.90
1994;DHT22;998;49.906;10.908;2023-03-05T10:20:39;4.20;99.90
1994;DHT22;998;49.906;10.908;2023-03-05T10:23:22;4.20;99.90
1994;DHT22;998;49.906;10.908;2023-03-05T10:26:07;4.30;99.90
1994;DHT22;998;49.906;10.908;2023-03-05T10:28:42;4.30;99.90
1994;DHT22;998;49.906;10.908;2023-03-05T10:31:35;4.30;99.90
1994;DHT22;998;49.906;10.908;2023-03-05T10:34:25;4.40;99.90
1994;DHT22;998;49.906;10.908;2023-03-05T10:37:10;4.40;99.90
1994;DHT22;998;49.906;10.908;2023-03-05T10:39:50;4.50;99.90
1994;DHT22;998;49.906;10.908;2023-03-05T10:42:30;4.50;99.90
1994;DHT22;998;49.906;10.908;2023-03-05T10:45:00;4.60;99.90
1994;DHT22;998;49.906;10.908;2023-03-05T10:47:41;4.70;99.90
1994;DHT22;998;49.906;10.908;2023-03-05T10:50:16;4.70;99.90
1994;DHT22;998;49.906;10.908;2023-03-05T10:52:47;4.70;99.90
1994;DHT22;998;49.906;10.908;2023-03-05T10:55:19;4.80;99.90
1994;DHT22;998;49.906;10.908;2023-03-05T10:57:46;4.80;99.90
1994;DHT22;998;49.906;10.908;2023-03-05T11:00:19;4.80;99.90
1994;DHT22;998;49.906;10.908;2023-03-05T11:02:59;4.90;99.90
1994;DHT22;998;49.906;10.908;2023-03-05T11:05:40;4.90;99.90
1994;DHT22;998;49.906;10.908;2023-03-05T11:08:26;4.90;99.90
1994;DHT22;998;49.906;10.908;2023-03-05T11:11:20;4.90;99.90
1994;DHT22;998;49.906;10.908;2023-03-05T11:13:54;4.90;99.90
1994;DHT22;998;49.906;10.908;2023-03-05T11:16:24;4.90;99.90
1994;DHT22;998;49.906;10.908;2023-03-05T11:19:14;4.90;99.90
1994;DHT22;998;49.906;10.908;2023-03-05T11:21:43;4.90;99.90
1994;DHT22;998;49.906;10.908;2023-03-05T11:24:13;4.80;99.90
1994;DHT22;998;49.906;10.908;2023-03-05T11:26:46;4.80;99.90
1994;DHT22;998;49.906;10.908;2023-03-05T11:29:21;4.80;99.90
1994;DHT22;998;49.906;10.908;2023-03-05T11:31:49;4.80;99.90
1994;DHT22;998;49.906;10.908;2023-03-05T11:34:29;4.80;99.90
1994;DHT22;998;49.906;10.908;2023-03-05T11:37:02;4.80;99.90
1994;DHT22;998;49.906;10.908;2023-03-05T11:39:33;4.80;99.90
1994;DHT22;998;49.906;10.908;2023-03-05T11:42:06;4.80;99.90
1994;DHT22;998;49.906;10.908;2023-03-05T11:44:43;4.80;99.90
1994;DHT22;998;49.906;10.908;2023-03-05T11:47:17;4.80;99.90
1994;DHT22;998;49.906;10.908;2023-03-05T11:49:49;4.80;99.90
1994;DHT22;998;49.906;10.908;2023-03-05T11:52:20;4.90;99.90
1994;DHT22;998;49.906;10.908;2023-03-05T11:54:57;4.90;99.90
1994;DHT22;998;49.906;10.908;2023-03-05T11:57:29;4.90;99.90
1994;DHT22;998;49.906;10.908;2023-03-05T12:00:03;4.90;99.90
1994;DHT22;998;49.906;10.908;2023-03-05T12:02:36;4.90;99.90
1994;DHT22;998;49.906;10.908;2023-03-05T12:05:05;4.90;99.90
1994;DHT22;998;49.906;10.908;2023-03-05T12:07:35;4.90;99.90
1994;DHT22;998;49.906;10.908;2023-03-05T12:10:11;4.90;99.90
1994;DHT22;998;49.906;10.908;2023-03-05T12:12:43;4.80;99.90
1994;DHT22;998;49.906;10.908;2023-03-05T12:15:38;4.80;99.90
1994;DHT22;998;49.906;10.908;2023-03-05T12:18:19;4.80;99.90
1994;DHT22;998;49.906;10.908;2023-03-05T12:20:59;4.80;99.90
1994;DHT22;998;49.906;10.908;2023-03-05T12:23:29;4.80;99.90
1994;DHT22;998;49.906;10.908;2023-03-05T12:26:11;4.80;99.90
1994;DHT22;998;49.906;10.908;2023-03-05T12:28:55;4.90;99.90
1994;DHT22;998;49.906;10.908;2023-03-05T12:31:34;4.80;99.90
1994;DHT22;998;49.906;10.908;2023-03-05T12:40:20;4.90;99.90
1994;DHT22;998;49.906;10.908;2023-03-05T12:42:58;4.80;99.90
1994;DHT22;998;49.906;10.908;2023-03-05T12:45:34;4.90;99.90
1994;DHT22;998;49.906;10.908;2023-03-05T12:48:44;4.90;99.90
1994;DHT22;998;49.906;10.908;2023-03-05T12:51:33;4.90;99.90
1994;DHT22;998;49.906;10.908;2023-03-05T12:54:28;4.90;99.90
1994;DHT22;998;49.906;10.908;2023-03-05T12:56:58;4.90;99.90
1994;DHT22;998;49.906;10.908;2023-03-05T12:59:41;4.90;99.90
1994;DHT22;998;49.906;10.908;2023-03-05T13:02:21;4.90;99.90
1994;DHT22;998;49.906;10.908;2023-03-05T13:04:50;4.90;99.90
1994;DHT22;998;49.906;10.908;2023-03-05T13:07:19;4.90;99.90
1994;DHT22;998;49.906;10.908;2023-03-05T13:09:56;4.90;99.90
1994;DHT22;998;49.906;10.908;2023-03-05T13:12:26;4.90;99.90
1994;DHT22;998;49.906;10.908;2023-03-05T13:14:58;4.90;99.90
1994;DHT22;998;49.906;10.908;2023-03-05T13:17:31;4.90;99.90
1994;DHT22;998;49.906;10.908;2023-03-05T13:20:01;4.90;99.90
1994;DHT22;998;49.906;10.908;2023-03-05T13:22:31;4.90;99.90
1994;DHT22;998;49.906;10.908;2023-03-05T13:25:15;4.90;99.90
1994;DHT22;998;49.906;10.908;2023-03-05T13:27:45;4.90;99.90
1994;DHT22;998;49.906;10.908;2023-03-05T13:30:26;5.00;99.90
1994;DHT22;998;49.906;10.908;2023-03-05T13:32:56;4.90;99.90
1994;DHT22;998;49.906;10.908;2023-03-05T13:35:27;4.90;99.90
1994;DHT22;998;49.906;10.908;2023-03-05T13:37:55;4.80;99.90
1994;DHT22;998;49.906;10.908;2023-03-05T13:40:25;4.90;99.90
1994;DHT22;998;49.906;10.908;2023-03-05T13:42:53;4.90;99.90
1994;DHT22;998;49.906;10.908;2023-03-05T13:45:26;4.90;99.90
1994;DHT22;998;49.906;10.908;2023-03-05T13:47:55;4.80;99.90
1994;DHT22;998;49.906;10.908;2023-03-05T13:50:25;4.90;99.90
1994;DHT22;998;49.906;10.908;2023-03-05T13:52:54;4.90;99.90
1994;DHT22;998;49.906;10.908;2023-03-05T13:55:22;4.90;99.90
1994;DHT22;998;49.906;10.908;2023-03-05T13:57:51;4.90;99.90
1994;DHT22;998;49.906;10.908;2023-03-05T14:00:29;4.90;99.90
1994;DHT22;998;49.906;10.908;2023-03-05T14:03:00;4.90;99.90
1994;DHT22;998;49.906;10.908;2023-03-05T14:05:28;4.90;99.90
1994;DHT22;998;49.906;10.908;2023-03-05T14:07:57;4.80;99.90
1994;DHT22;998;49.906;10.908;2023-03-05T14:10:30;4.80;99.90
1994;DHT22;998;49.906;10.908;2023-03-05T14:13:00;4.80;99.90
1994;DHT22;998;49.906;10.908;2023-03-05T14:15:32;4.90;99.90
1994;DHT22;998;49.906;10.908;2023-03-05T14:18:17;4.90;99.90
1994;DHT22;998;49.906;10.908;2023-03-05T14:21:01;4.80;99.90
1994;DHT22;998;49.906;10.908;2023-03-05T14:23:37;4.80;99.90
1994;DHT22;998;49.906;10.908;2023-03-05T14:26:27;4.80;99.90
1994;DHT22;998;49.906;10.908;2023-03-05T14:28:58;4.80;99.90
1994;DHT22;998;49.906;10.908;2023-03-05T14:31:29;4.90;99.90
1994;DHT22;998;49.906;10.908;2023-03-05T14:34:01;4.80;99.90
1994;DHT22;998;49.906;10.908;2023-03-05T14:36:30;4.80;99.90
1994;DHT22;998;49.906;10.908;2023-03-05T14:38:58;4.80;99.90
1994;DHT22;998;49.906;10.908;2023-03-05T14:41:34;4.80;99.90
1994;DHT22;998;49.906;10.908;2023-03-05T14:44:10;4.80;99.90
1994;DHT22;998;49.906;10.908;2023-03-05T14:46:40;4.80;99.90
1994;DHT22;998;49.906;10.908;2023-03-05T14:49:08;4.70;99.90
1994;DHT22;998;49.906;10.908;2023-03-05T14:51:39;4.70;99.90
1994;DHT22;998;49.906;10.908;2023-03-05T14:54:14;4.80;99.90
1994;DHT22;998;49.906;10.908;2023-03-05T14:56:43;4.70;99.90
1994;DHT22;998;49.906;10.908;2023-03-05T14:59:11;4.70;99.90
1994;DHT22;998;49.906;10.908;2023-03-05T15:01:39;4.80;99.90
1994;DHT22;998;49.906;10.908;2023-03-05T15:04:07;4.70;99.90
1994;DHT22;998;49.906;10.908;2023-03-05T15:06:36;4.70;99.90
1994;DHT22;998;49.906;10.908;2023-03-05T15:09:05;4.70;99.90
1994;DHT22;998;49.906;10.908;2023-03-05T15:11:33;4.70;99.90
1994;DHT22;998;49.906;10.908;2023-03-05T15:14:01;4.70;99.90
1994;DHT22;998;49.906;10.908;2023-03-05T15:16:29;4.80;99.90
1994;DHT22;998;49.906;10.908;2023-03-05T15:18:58;4.70;99.90
1994;DHT22;998;49.906;10.908;2023-03-05T15:21:25;4.70;99.90
1994;DHT22;998;49.906;10.908;2023-03-05T15:23:52;4.70;99.90
1994;DHT22;998;49.906;10.908;2023-03-05T15:26:20;4.70;99.90
1994;DHT22;998;49.906;10.908;2023-03-05T15:28:47;4.70;99.90
1994;DHT22;998;49.906;10.908;2023-03-05T15:31:15;4.70;99.90
1994;DHT22;998;49.906;10.908;2023-03-05T15:33:43;4.70;99.90
1994;DHT22;998;49.906;10.908;2023-03-05T15:36:12;4.70;99.90
1994;DHT22;998;49.906;10.908;2023-03-05T15:38:39;4.70;99.90
1994;DHT22;998;49.906;10.908;2023-03-05T15:41:07;4.60;99.90
1994;DHT22;998;49.906;10.908;2023-03-05T15:43:36;4.60;99.90
1994;DHT22;998;49.906;10.908;2023-03-05T15:46:04;4.60;99.90
1994;DHT22;998;49.906;10.908;2023-03-05T15:48:32;4.60;99.90
1994;DHT22;998;49.906;10.908;2023-03-05T15:51:00;4.70;99.90
1994;DHT22;998;49.906;10.908;2023-03-05T15:53:28;4.70;99.90
1994;DHT22;998;49.906;10.908;2023-03-05T15:55:55;4.60;99.90
1994;DHT22;998;49.906;10.908;2023-03-05T15:58:23;4.60;99.90
1994;DHT22;998;49.906;10.908;2023-03-05T16:00:50;4.60;99.90
1994;DHT22;998;49.906;10.908;2023-03-05T16:03:18;4.60;99.90
1994;DHT22;998;49.906;10.908;2023-03-05T16:05:45;4.60;99.90
1994;DHT22;998;49.906;10.908;2023-03-05T16:08:12;4.60;99.90
1994;DHT22;998;49.906;10.908;2023-03-05T16:10:41;4.60;99.90
1994;DHT22;998;49.906;10.908;2023-03-05T16:13:11;4.60;99.90
1994;DHT22;998;49.906;10.908;2023-03-05T16:15:40;4.60;99.90
1994;DHT22;998;49.906;10.908;2023-03-05T16:18:10;4.60;99.90
1994;DHT22;998;49.906;10.908;2023-03-05T16:20:38;4.60;99.90
1994;DHT22;998;49.906;10.908;2023-03-05T16:23:05;4.60;99.90
1994;DHT22;998;49.906;10.908;2023-03-05T16:25:32;4.60;99.90
1994;DHT22;998;49.906;10.908;2023-03-05T16:28:01;4.60;99.90
1994;DHT22;998;49.906;10.908;2023-03-05T16:30:29;4.60;99.90
1994;DHT22;998;49.906;10.908;2023-03-05T16:32:58;4.60;99.90
1994;DHT22;998;49.906;10.908;2023-03-05T16:35:25;4.60;99.90
1994;DHT22;998;49.906;10.908;2023-03-05T16:37:52;4.60;99.90
1994;DHT22;998;49.906;10.908;2023-03-05T16:40:19;4.60;99.90
1994;DHT22;998;49.906;10.908;2023-03-05T16:42:47;4.60;99.90